Time,TemperatureF,DewpointF,PressureIn,WindDirection,WindDirectionDegrees,WindSpeedMPH,WindSpeedGustMPH,Humidity,HourlyPrecipIn,Conditions,Clouds,dailyrainin,SoftwareType,DateUTC
2013-07-17 00:02:00,74.0,68.0,-100.00,SSW,195,6.0,10.0,84,0.00,,,0.00,,2013-07-17 05:02:00,
2013-07-17 00:22:00,73.0,68.0,-100.00,SSW,210,6.0,8.0,86,0.00,,,0.00,,2013-07-17 05:22:00,
2013-07-17 00:52:00,72.0,68.0,-100.00,SW,230,3.0,4.0,89,0.00,,,0.00,,2013-07-17 05:52:00,
2013-07-17 01:01:00,71.0,68.0,-100.00,SW,235,4.0,5.0,90,0.00,,,0.00,,2013-07-17 06:01:00,
2013-07-17 01:22:00,70.0,68.0,-100.00,SSW,200,3.0,4.0,91,0.00,,,0.00,,2013-07-17 06:22:00,
2013-07-17 01:52:00,70.0,68.0,-100.00,South,185,4.0,4.0,93,0.00,,,0.00,,2013-07-17 06:52:00,
2013-07-17 02:22:00,69.0,66.0,-100.00,SSW,205,2.0,4.0,93,0.00,,,0.00,,2013-07-17 07:22:00,
2013-07-17 02:32:00,69.0,66.0,-100.00,South,185,0.0,1.0,93,0.00,,,0.00,,2013-07-17 07:32:00,
2013-07-17 02:52:00,68.0,66.0,-100.00,South,175,2.0,3.0,94,0.00,,,0.00,,2013-07-17 07:52:00,
2013-07-17 03:01:00,68.0,66.0,-100.00,South,170,2.0,3.0,94,0.00,,,0.00,,2013-07-17 08:01:00,
2013-07-17 03:22:00,69.0,66.0,-100.00,South,180,2.0,4.0,94,0.00,,,0.00,,2013-07-17 08:22:00,
2013-07-17 03:53:00,68.0,66.0,-100.00,South,190,2.0,4.0,94,0.00,,,0.00,,2013-07-17 08:53:00,
2013-07-17 04:22:00,68.0,66.0,-100.00,South,175,1.0,4.0,94,0.00,,,0.00,,2013-07-17 09:22:00,
2013-07-17 04:52:00,68.0,66.0,-100.00,South,175,2.0,4.0,94,0.00,,,0.00,,2013-07-17 09:52:00,
2013-07-17 05:22:00,68.0,66.0,-100.00,SSW,200,1.0,2.0,94,0.00,,,0.00,,2013-07-17 10:22:00,
2013-07-17 07:01:00,70.0,68.0,-100.00,South,175,2.0,4.0,94,0.00,,,0.00,,2013-07-17 12:01:00,
2013-07-17 07:12:00,70.0,68.0,-100.00,SSW,200,2.0,4.0,93,0.00,,,0.00,,2013-07-17 12:12:00,
2013-07-17 07:22:00,71.0,68.0,-100.00,South,190,2.0,4.0,92,0.00,,,0.00,,2013-07-17 12:22:00,
2013-07-17 07:42:00,72.0,68.0,-100.00,SW,220,4.0,5.0,87,0.00,,,0.00,,2013-07-17 12:42:00,
2013-07-17 07:53:00,72.0,68.0,-100.00,SW,220,4.0,7.0,87,0.00,,,0.00,,2013-07-17 12:53:00,
2013-07-17 08:01:00,72.0,68.0,-100.00,SSW,210,6.0,8.0,87,0.00,,,0.00,,2013-07-17 13:01:00,
2013-07-17 08:22:00,73.0,70.0,-100.00,SW,215,6.0,7.0,85,0.00,,,0.00,,2013-07-17 13:22:00,
2013-07-17 09:02:00,78.0,68.0,-100.00,SW,230,6.0,9.0,74,0.00,,,0.00,,2013-07-17 14:02:00,
2013-07-17 09:11:00,78.0,68.0,-100.00,SW,215,7.0,11.0,72,0.00,,,0.00,,2013-07-17 14:11:00,
2013-07-17 09:22:00,78.0,68.0,-100.00,SW,230,6.0,11.0,71,0.00,,,0.00,,2013-07-17 14:22:00,
2013-07-17 09:32:00,79.0,68.0,-100.00,WSW,240,6.0,9.0,68,0.00,,,0.00,,2013-07-17 14:32:00,
2013-07-17 09:52:00,81.0,68.0,-100.00,WSW,255,2.0,7.0,65,0.00,,,0.00,,2013-07-17 14:52:00,
2013-07-17 11:22:00,84.0,68.0,-100.00,SW,230,5.0,7.0,58,0.00,,,0.00,,2013-07-17 16:22:00,
2013-07-17 12:02:00,86.0,68.0,-100.00,SSW,195,4.0,7.0,54,0.00,,,0.00,,2013-07-17 17:02:00,
2013-07-17 12:11:00,86.0,66.0,-100.00,NW,320,2.0,5.0,53,0.00,,,0.00,,2013-07-17 17:11:00,
2013-07-17 12:22:00,87.0,66.0,-100.00,SW,215,6.0,9.0,51,0.00,,,0.00,,2013-07-17 17:22:00,
2013-07-17 13:01:00,87.0,66.0,-100.00,West,265,4.0,10.0,50,0.00,,,0.00,,2013-07-17 18:01:00,
2013-07-17 13:52:00,87.0,68.0,-100.00,South,190,6.0,11.0,51,0.00,,,0.00,,2013-07-17 18:52:00,
2013-07-17 14:01:00,88.0,68.0,-100.00,South,190,7.0,11.0,51,0.00,,,0.00,,2013-07-17 19:01:00,
2013-07-17 14:11:00,88.0,66.0,-100.00,SSW,195,10.0,14.0,50,0.00,,,0.00,,2013-07-17 19:11:00,
2013-07-17 14:22:00,88.0,68.0,-100.00,SW,225,12.0,16.0,50,0.00,,,0.00,,2013-07-17 19:22:00,
2013-07-17 14:53:00,89.0,68.0,-100.00,SW,220,8.0,14.0,49,0.00,,,0.00,,2013-07-17 19:53:00,
2013-07-17 15:11:00,89.0,68.0,-100.00,SSW,200,10.0,18.0,48,0.00,,,0.00,,2013-07-17 20:11:00,
2013-07-17 15:22:00,87.0,68.0,-100.00,SSW,210,9.0,14.0,51,0.00,,,0.00,,2013-07-17 20:22:00,
2013-07-17 15:52:00,88.0,66.0,-100.00,SSW,210,12.0,18.0,48,0.00,,,0.00,,2013-07-17 20:52:00,
2013-07-17 16:12:00,88.0,68.0,-100.00,SSW,210,11.0,17.0,50,0.00,,,0.00,,2013-07-17 21:12:00,
2013-07-17 16:22:00,88.0,66.0,-100.00,SSW,205,15.0,21.0,48,0.00,,,0.00,,2013-07-17 21:22:00,
2013-07-17 16:32:00,89.0,66.0,-100.00,SW,220,16.0,19.0,47,0.00,,,0.00,,2013-07-17 21:32:00,
2013-07-17 16:52:00,88.0,66.0,-100.00,SSW,205,14.0,19.0,48,0.00,,,0.00,,2013-07-17 21:52:00,
2013-07-17 17:01:00,89.0,66.0,-100.00,SW,220,12.0,19.0,48,0.00,,,0.00,,2013-07-17 22:01:00,
2013-07-17 17:22:00,88.0,66.0,-100.00,SW,220,14.0,21.0,48,0.00,,,0.00,,2013-07-17 22:22:00,
2013-07-17 18:11:00,87.0,66.0,-100.00,SSW,200,11.0,17.0,49,0.00,,,0.00,,2013-07-17 23:11:00,
2013-07-17 18:22:00,87.0,66.0,-100.00,SW,215,12.0,17.0,49,0.00,,,0.00,,2013-07-17 23:22:00,
2013-07-17 18:52:00,87.0,66.0,-100.00,SW,235,10.0,17.0,50,0.00,,,0.00,,2013-07-17 23:52:00,
2013-07-17 19:01:00,85.0,64.0,-100.00,SW,225,12.0,16.0,51,0.00,,,0.00,,2013-07-18 00:01:00,
2013-07-17 19:11:00,83.0,64.0,-100.00,SW,220,8.0,16.0,53,0.00,,,0.00,,2013-07-18 00:11:00,
2013-07-17 19:22:00,83.0,66.0,-100.00,SW,220,7.0,10.0,55,0.00,,,0.00,,2013-07-18 00:22:00,
2013-07-17 19:33:00,83.0,66.0,-100.00,SW,220,7.0,10.0,56,0.00,,,0.00,,2013-07-18 00:33:00,
2013-07-17 19:52:00,84.0,68.0,-100.00,SW,225,6.0,10.0,57,0.00,,,0.00,,2013-07-18 00:52:00,
2013-07-17 20:01:00,83.0,68.0,-100.00,SW,220,7.0,9.0,59,0.00,,,0.00,,2013-07-18 01:01:00,
2013-07-17 20:22:00,82.0,70.0,-100.00,SW,220,5.0,6.0,64,0.00,,,0.00,,2013-07-18 01:22:00,
2013-07-17 20:32:00,81.0,70.0,-100.00,SSW,210,4.0,6.0,67,0.00,,,0.00,,2013-07-18 01:32:00,
2013-07-17 21:02:00,80.0,70.0,-100.00,SW,225,5.0,6.0,73,0.00,,,0.00,,2013-07-18 02:02:00,
2013-07-17 21:11:00,79.0,70.0,-100.00,WSW,240,4.0,6.0,73,0.00,,,0.00,,2013-07-18 02:11:00,
2013-07-17 21:22:00,78.0,72.0,-100.00,SW,220,2.0,4.0,77,0.00,,,0.00,,2013-07-18 02:22:00,
2013-07-17 21:32:00,78.0,70.0,-100.00,South,175,1.0,1.0,78,0.00,,,0.00,,2013-07-18 02:32:00,
2013-07-17 22:01:00,76.0,70.0,-100.00,NE,50,1.0,1.0,84,0.00,,,0.00,,2013-07-18 03:01:00,
2013-07-17 22:11:00,75.0,70.0,-100.00,ENE,60,1.0,1.0,85,0.00,,,0.00,,2013-07-18 03:11:00,
2013-07-17 22:22:00,75.0,72.0,-100.00,East,100,4.0,4.0,88,0.00,,,0.00,,2013-07-18 03:22:00,
2013-07-17 22:32:00,74.0,72.0,-100.00,East,95,2.0,4.0,90,0.00,,,0.00,,2013-07-18 03:32:00,
2013-07-17 22:52:00,74.0,72.0,-100.00,East,80,2.0,2.0,89,0.00,,,0.00,,2013-07-18 03:52:00,
2013-07-17 23:02:00,74.0,72.0,-100.00,NE,55,1.0,2.0,89,0.00,,,0.00,,2013-07-18 04:02:00,
2013-07-17 23:22:00,74.0,70.0,-100.00,North,350,4.0,6.0,89,0.00,,,0.00,,2013-07-18 04:22:00,
2013-07-17 23:43:00,74.0,72.0,-100.00,NNE,30,2.0,4.0,89,0.00,,,0.00,,2013-07-18 04:43:00,